sensor_id;sensor_type;location;lat;lon;timestamp;pressure;altitude;pressure_sealevel;temperature;humidity
19795;BME280;10057;59.402;17.866;2022-12-07T00:01:32;100740.63;;;-4.10;79.65
19795;BME280;10057;59.402;17.866;2022-12-07T00:04:01;100740.28;;;-4.24;79.92
19795;BME280;10057;59.402;17.866;2022-12-07T00:06:36;100745.28;;;-4.32;80.38
19795;BME280;10057;59.402;17.866;2022-12-07T00:09:05;100742.50;;;-4.41;79.82
19795;BME280;10057;59.402;17.866;2022-12-07T00:11:33;100736.31;;;-4.47;80.08
19795;BME280;10057;59.402;17.866;2022-12-07T00:14:02;100739.69;;;-4.50;80.41
19795;BME280;10057;59.402;17.866;2022-12-07T00:16:31;100738.75;;;-4.52;80.54
19795;BME280;10057;59.402;17.866;2022-12-07T00:18:58;100740.47;;;-4.54;80.40
19795;BME280;10057;59.402;17.866;2022-12-07T00:21:28;100737.00;;;-4.55;80.57
19795;BME280;10057;59.402;17.866;2022-12-07T00:23:55;100737.88;;;-4.53;80.80
19795;BME280;10057;59.402;17.866;2022-12-07T00:26:25;100735.34;;;-4.51;80.92
19795;BME280;10057;59.402;17.866;2022-12-07T00:28:54;100726.88;;;-4.44;80.72
19795;BME280;10057;59.402;17.866;2022-12-07T00:31:23;100731.38;;;-4.37;80.64
19795;BME280;10057;59.402;17.866;2022-12-07T00:33:50;100725.41;;;-4.33;80.60
19795;BME280;10057;59.402;17.866;2022-12-07T00:36:20;100721.19;;;-4.28;80.14
19795;BME280;10057;59.402;17.866;2022-12-07T00:38:53;100720.38;;;-4.26;80.46
19795;BME280;10057;59.402;17.866;2022-12-07T00:41:22;100712.59;;;-4.26;80.38
19795;BME280;10057;59.402;17.866;2022-12-07T00:43:50;100723.03;;;-4.23;80.33
19795;BME280;10057;59.402;17.866;2022-12-07T00:46:18;100712.75;;;-4.20;80.24
19795;BME280;10057;59.402;17.866;2022-12-07T00:48:46;100712.75;;;-4.20;80.09
19795;BME280;10057;59.402;17.866;2022-12-07T00:51:14;100715.34;;;-4.20;79.95
19795;BME280;10057;59.402;17.866;2022-12-07T00:53:41;100714.50;;;-4.19;80.10
19795;BME280;10057;59.402;17.866;2022-12-07T00:56:13;100712.75;;;-4.20;79.64
19795;BME280;10057;59.402;17.866;2022-12-07T00:58:40;100710.16;;;-4.20;80.11
19795;BME280;10057;59.402;17.866;2022-12-07T01:01:08;100705.78;;;-4.23;79.92
19795;BME280;10057;59.402;17.866;2022-12-07T01:03:36;100716.13;;;-4.23;80.10
19795;BME280;10057;59.402;17.866;2022-12-07T01:06:04;100707.44;;;-4.25;80.03
19795;BME280;10057;59.402;17.866;2022-12-07T01:08:31;100709.88;;;-4.31;79.60
19795;BME280;10057;59.402;17.866;2022-12-07T01:11:11;100715.00;;;-4.34;80.10
19795;BME280;10057;59.402;17.866;2022-12-07T01:13:44;100718.50;;;-4.34;80.20
19795;BME280;10057;59.402;17.866;2022-12-07T01:16:13;100707.28;;;-4.33;80.23
19795;BME280;10057;59.402;17.866;2022-12-07T01:18:41;100714.19;;;-4.32;80.10
19795;BME280;10057;59.402;17.866;2022-12-07T01:21:16;100705.63;;;-4.31;80.10
19795;BME280;10057;59.402;17.866;2022-12-07T01:23:44;100710.81;;;-4.29;79.92
19795;BME280;10057;59.402;17.866;2022-12-07T01:26:13;100703.88;;;-4.30;80.09
19795;BME280;10057;59.402;17.866;2022-12-07T01:28:40;100706.50;;;-4.29;79.86
19795;BME280;10057;59.402;17.866;2022-12-07T01:31:13;100697.00;;;-4.30;79.80
19795;BME280;10057;59.402;17.866;2022-12-07T01:33:45;100694.41;;;-4.30;79.93
19795;BME280;10057;59.402;17.866;2022-12-07T01:39:00;100700.38;;;-4.32;79.91
19795;BME280;10057;59.402;17.866;2022-12-07T01:41:30;100696.00;;;-4.35;80.06
19795;BME280;10057;59.402;17.866;2022-12-07T01:46:33;100692.50;;;-4.37;79.95
19795;BME280;10057;59.402;17.866;2022-12-07T01:49:00;100687.34;;;-4.37;80.11
19795;BME280;10057;59.402;17.866;2022-12-07T01:51:29;100699.44;;;-4.36;79.92
19795;BME280;10057;59.402;17.866;2022-12-07T01:54:00;100701.19;;;-4.35;79.77
19795;BME280;10057;59.402;17.866;2022-12-07T01:56:28;100692.59;;;-4.34;80.22
19795;BME280;10057;59.402;17.866;2022-12-07T01:58:56;100693.47;;;-4.32;80.16
19795;BME280;10057;59.402;17.866;2022-12-07T02:01:23;100689.22;;;-4.30;79.92
19795;BME280;10057;59.402;17.866;2022-12-07T02:03:50;100681.47;;;-4.28;79.93
19795;BME280;10057;59.402;17.866;2022-12-07T02:06:21;100691.88;;;-4.26;80.03
19795;BME280;10057;59.402;17.866;2022-12-07T02:08:50;100682.34;;;-4.28;80.01
19795;BME280;10057;59.402;17.866;2022-12-07T02:11:17;100687.50;;;-4.29;80.27
19795;BME280;10057;59.402;17.866;2022-12-07T02:13:45;100690.00;;;-4.34;79.38
19795;BME280;10057;59.402;17.866;2022-12-07T02:18:43;100691.97;;;-4.60;79.50
19795;BME280;10057;59.402;17.866;2022-12-07T02:21:48;100690.03;;;-4.68;80.16
19795;BME280;10057;59.402;17.866;2022-12-07T02:27:35;100693.66;;;-4.62;80.38
19795;BME280;10057;59.402;17.866;2022-12-07T02:30:15;100695.50;;;-4.56;80.42
19795;BME280;10057;59.402;17.866;2022-12-07T02:33:05;100680.06;;;-4.52;80.42
19795;BME280;10057;59.402;17.866;2022-12-07T02:35:50;100678.44;;;-4.48;80.56
19795;BME280;10057;59.402;17.866;2022-12-07T02:38:46;100676.75;;;-4.46;80.04
19795;BME280;10057;59.402;17.866;2022-12-07T02:41:31;100677.69;;;-4.44;80.08
19795;BME280;10057;59.402;17.866;2022-12-07T02:44:21;100673.44;;;-4.40;79.90
19795;BME280;10057;59.402;17.866;2022-12-07T02:46:53;100674.31;;;-4.38;80.00
19795;BME280;10057;59.402;17.866;2022-12-07T02:49:25;100670.03;;;-4.38;79.70
19795;BME280;10057;59.402;17.866;2022-12-07T02:51:53;100661.44;;;-4.35;79.77
19795;BME280;10057;59.402;17.866;2022-12-07T02:54:21;100671.00;;;-4.33;79.63
19795;BME280;10057;59.402;17.866;2022-12-07T02:56:51;100667.56;;;-4.32;80.08
19795;BME280;10057;59.402;17.866;2022-12-07T03:02:39;100671.66;;;-4.43;79.48
19795;BME280;10057;59.402;17.866;2022-12-07T03:13:48;100656.97;;;-4.42;79.90
19795;BME280;10057;59.402;17.866;2022-12-07T03:16:35;100660.34;;;-4.46;79.61
19795;BME280;10057;59.402;17.866;2022-12-07T03:19:13;100654.31;;;-4.47;79.54
19795;BME280;10057;59.402;17.866;2022-12-07T03:21:45;100650.00;;;-4.46;79.46
19795;BME280;10057;59.402;17.866;2022-12-07T03:24:19;100651.81;;;-4.42;79.73
19795;BME280;10057;59.402;17.866;2022-12-07T03:27:03;100657.84;;;-4.42;79.43
19795;BME280;10057;59.402;17.866;2022-12-07T03:29:49;100650.94;;;-4.43;79.77
19795;BME280;10057;59.402;17.866;2022-12-07T03:32:37;100653.38;;;-4.49;79.91
19795;BME280;10057;59.402;17.866;2022-12-07T03:35:07;100655.03;;;-4.53;79.80
19795;BME280;10057;59.402;17.866;2022-12-07T03:37:48;100657.66;;;-4.51;79.67
19795;BME280;10057;59.402;17.866;2022-12-07T03:42:57;100653.38;;;-4.49;80.09
19795;BME280;10057;59.402;17.866;2022-12-07T03:45:34;100647.31;;;-4.51;79.93
19795;BME280;10057;59.402;17.866;2022-12-07T03:48:20;100643.81;;;-4.52;79.95
19795;BME280;10057;59.402;17.866;2022-12-07T03:51:00;100640.44;;;-4.49;79.75
19795;BME280;10057;59.402;17.866;2022-12-07T03:53:40;100643.94;;;-4.47;79.71
19795;BME280;10057;59.402;17.866;2022-12-07T03:56:10;100632.72;;;-4.47;79.66
19795;BME280;10057;59.402;17.866;2022-12-07T03:58:39;100638.72;;;-4.48;79.84
19795;BME280;10057;59.402;17.866;2022-12-07T04:01:06;100638.75;;;-4.47;80.16
19795;BME280;10057;59.402;17.866;2022-12-07T04:03:33;100638.75;;;-4.47;79.89
19795;BME280;10057;59.402;17.866;2022-12-07T04:06:04;100632.72;;;-4.46;79.91
19795;BME280;10057;59.402;17.866;2022-12-07T04:08:31;100631.88;;;-4.45;80.10
19795;BME280;10057;59.402;17.866;2022-12-07T04:11:01;100618.09;;;-4.44;79.85
19795;BME280;10057;59.402;17.866;2022-12-07T04:13:30;100612.88;;;-4.45;80.03
19795;BME280;10057;59.402;17.866;2022-12-07T04:16:24;100605.88;;;-4.51;79.72
19795;BME280;10057;59.402;17.866;2022-12-07T04:18:51;100605.81;;;-4.54;79.93
19795;BME280;10057;59.402;17.866;2022-12-07T04:21:18;100610.13;;;-4.55;80.11
19795;BME280;10057;59.402;17.866;2022-12-07T04:23:44;100604.97;;;-4.52;80.16
19795;BME280;10057;59.402;17.866;2022-12-07T04:26:11;100604.16;;;-4.49;80.14
19795;BME280;10057;59.402;17.866;2022-12-07T04:28:40;100604.25;;;-4.46;79.89
19795;BME280;10057;59.402;17.866;2022-12-07T04:31:07;100593.88;;;-4.46;80.01
19795;BME280;10057;59.402;17.866;2022-12-07T04:33:35;100595.59;;;-4.46;80.16
19795;BME280;10057;59.402;17.866;2022-12-07T04:36:02;100584.38;;;-4.47;80.31
19795;BME280;10057;59.402;17.866;2022-12-07T04:38:32;100575.75;;;-4.46;80.21
19795;BME280;10057;59.402;17.866;2022-12-07T04:41:07;100578.41;;;-4.43;80.34
19795;BME280;10057;59.402;17.866;2022-12-07T04:43:34;100576.75;;;-4.41;80.33
19795;BME280;10057;59.402;17.866;2022-12-07T04:46:03;100579.41;;;-4.36;80.34
19795;BME280;10057;59.402;17.866;2022-12-07T04:48:30;100576.84;;;-4.35;80.46
19795;BME280;10057;59.402;17.866;2022-12-07T04:51:00;100570.78;;;-4.37;80.30
19795;BME280;10057;59.402;17.866;2022-12-07T04:53:26;100573.38;;;-4.35;80.01
19795;BME280;10057;59.402;17.866;2022-12-07T04:55:55;100567.41;;;-4.33;80.40
19795;BME280;10057;59.402;17.866;2022-12-07T04:58:21;100559.63;;;-4.33;80.19
19795;BME280;10057;59.402;17.866;2022-12-07T05:00:54;100556.19;;;-4.32;80.22
19795;BME280;10057;59.402;17.866;2022-12-07T05:03:21;100569.13;;;-4.32;80.47
19795;BME280;10057;59.402;17.866;2022-12-07T05:05:47;100561.38;;;-4.32;80.26
19795;BME280;10057;59.402;17.866;2022-12-07T05:08:14;100558.81;;;-4.30;80.13
19795;BME280;10057;59.402;17.866;2022-12-07T05:10:41;100557.06;;;-4.31;79.95
19795;BME280;10057;59.402;17.866;2022-12-07T05:13:07;100556.16;;;-4.33;80.07
19795;BME280;10057;59.402;17.866;2022-12-07T05:15:34;100562.16;;;-4.34;79.80
19795;BME280;10057;59.402;17.866;2022-12-07T05:18:00;100558.72;;;-4.35;80.46
19795;BME280;10057;59.402;17.866;2022-12-07T05:20:27;100561.31;;;-4.35;80.30
19795;BME280;10057;59.402;17.866;2022-12-07T05:22:54;100563.88;;;-4.35;80.32
19795;BME280;10057;59.402;17.866;2022-12-07T05:25:21;100552.72;;;-4.34;80.57
19795;BME280;10057;59.402;17.866;2022-12-07T05:27:47;100561.22;;;-4.38;80.45
19795;BME280;10057;59.402;17.866;2022-12-07T05:30:14;100550.88;;;-4.38;80.33
19795;BME280;10057;59.402;17.866;2022-12-07T05:32:41;100558.63;;;-4.39;80.43
19795;BME280;10057;59.402;17.866;2022-12-07T05:35:07;100554.25;;;-4.42;80.35
19795;BME280;10057;59.402;17.866;2022-12-07T05:37:34;100552.56;;;-4.40;80.52
19795;BME280;10057;59.402;17.866;2022-12-07T05:40:01;100549.94;;;-4.41;80.34
19795;BME280;10057;59.402;17.866;2022-12-07T05:42:28;100552.50;;;-4.43;80.39
19795;BME280;10057;59.402;17.866;2022-12-07T05:44:54;100547.25;;;-4.46;80.38
19795;BME280;10057;59.402;17.866;2022-12-07T05:47:21;100542.16;;;-4.43;80.05
19795;BME280;10057;59.402;17.866;2022-12-07T05:49:48;100541.22;;;-4.45;80.20
19795;BME280;10057;59.402;17.866;2022-12-07T05:52:14;100542.97;;;-4.45;80.38
19795;BME280;10057;59.402;17.866;2022-12-07T05:54:41;100544.59;;;-4.49;80.47
19795;BME280;10057;59.402;17.866;2022-12-07T05:57:08;100548.06;;;-4.50;80.47
19795;BME280;10057;59.402;17.866;2022-12-07T05:59:35;100545.47;;;-4.50;80.33
19795;BME280;10057;59.402;17.866;2022-12-07T06:02:04;100547.13;;;-4.52;80.11
19795;BME280;10057;59.402;17.866;2022-12-07T06:04:35;100552.28;;;-4.54;80.10
19795;BME280;10057;59.402;17.866;2022-12-07T06:07:02;100545.38;;;-4.55;80.31
19795;BME280;10057;59.402;17.866;2022-12-07T06:09:29;100547.03;;;-4.57;80.42
19795;BME280;10057;59.402;17.866;2022-12-07T06:11:58;100550.44;;;-4.59;80.41
19795;BME280;10057;59.402;17.866;2022-12-07T06:14:44;100546.13;;;-4.60;80.58
19795;BME280;10057;59.402;17.866;2022-12-07T06:17:12;100544.38;;;-4.60;80.34
19795;BME280;10057;59.402;17.866;2022-12-07T06:19:39;100547.84;;;-4.59;80.48
19795;BME280;10057;59.402;17.866;2022-12-07T06:22:06;100550.38;;;-4.62;80.51
19795;BME280;10057;59.402;17.866;2022-12-07T06:24:33;100553.00;;;-4.61;80.60
19795;BME280;10057;59.402;17.866;2022-12-07T06:27:00;100557.34;;;-4.60;80.42
19795;BME280;10057;59.402;17.866;2022-12-07T06:29:27;100557.34;;;-4.58;80.30
19795;BME280;10057;59.402;17.866;2022-12-07T06:31:53;100557.31;;;-4.61;80.22
19795;BME280;10057;59.402;17.866;2022-12-07T06:34:21;100551.31;;;-4.59;80.37
19795;BME280;10057;59.402;17.866;2022-12-07T06:36:49;100549.59;;;-4.58;80.18
19795;BME280;10057;59.402;17.866;2022-12-07T06:39:18;100550.50;;;-4.56;80.32
19795;BME280;10057;59.402;17.866;2022-12-07T06:41:45;100553.09;;;-4.56;80.42
19795;BME280;10057;59.402;17.866;2022-12-07T06:44:12;100547.97;;;-4.55;80.01
19795;BME280;10057;59.402;17.866;2022-12-07T06:46:39;100558.31;;;-4.55;80.49
19795;BME280;10057;59.402;17.866;2022-12-07T06:49:06;100553.16;;;-4.55;80.23
19795;BME280;10057;59.402;17.866;2022-12-07T06:51:33;100545.31;;;-4.56;80.49
19795;BME280;10057;59.402;17.866;2022-12-07T06:54:03;100556.47;;;-4.59;80.08
19795;BME280;10057;59.402;17.866;2022-12-07T06:56:30;100565.97;;;-4.59;80.09
19795;BME280;10057;59.402;17.866;2022-12-07T06:58:57;100563.38;;;-4.61;80.29
19795;BME280;10057;59.402;17.866;2022-12-07T07:01:23;100572.00;;;-4.60;80.07
19795;BME280;10057;59.402;17.866;2022-12-07T07:03:50;100570.25;;;-4.61;80.16
19795;BME280;10057;59.402;17.866;2022-12-07T07:06:17;100562.44;;;-4.64;80.14
19795;BME280;10057;59.402;17.866;2022-12-07T07:08:44;100565.84;;;-4.65;80.48
19795;BME280;10057;59.402;17.866;2022-12-07T07:11:12;100562.44;;;-4.64;80.46
19795;BME280;10057;59.402;17.866;2022-12-07T07:13:38;100569.28;;;-4.66;79.97
19795;BME280;10057;59.402;17.866;2022-12-07T07:16:06;100572.72;;;-4.66;80.11
19795;BME280;10057;59.402;17.866;2022-12-07T07:18:33;100572.66;;;-4.69;80.23
19795;BME280;10057;59.402;17.866;2022-12-07T07:21:00;100569.19;;;-4.69;80.41
19795;BME280;10057;59.402;17.866;2022-12-07T07:23:27;100571.84;;;-4.68;80.66
19795;BME280;10057;59.402;17.866;2022-12-07T07:25:54;100570.94;;;-4.68;80.35
19795;BME280;10057;59.402;17.866;2022-12-07T07:28:21;100570.06;;;-4.70;80.59
19795;BME280;10057;59.402;17.866;2022-12-07T07:30:48;100568.31;;;-4.71;80.11
19795;BME280;10057;59.402;17.866;2022-12-07T07:33:14;100574.38;;;-4.69;80.38
19795;BME280;10057;59.402;17.866;2022-12-07T07:35:41;100573.50;;;-4.70;80.51
19795;BME280;10057;59.402;17.866;2022-12-07T07:38:08;100564.00;;;-4.71;79.90
19795;BME280;10057;59.402;17.866;2022-12-07T07:40:35;100568.25;;;-4.74;80.07
19795;BME280;10057;59.402;17.866;2022-12-07T07:43:03;100560.47;;;-4.74;80.13
19795;BME280;10057;59.402;17.866;2022-12-07T07:45:29;100565.69;;;-4.73;79.94
19795;BME280;10057;59.402;17.866;2022-12-07T07:47:56;100570.00;;;-4.72;80.52
19795;BME280;10057;59.402;17.866;2022-12-07T07:50:23;100570.00;;;-4.72;80.05
19795;BME280;10057;59.402;17.866;2022-12-07T07:52:50;100575.16;;;-4.73;80.30
19795;BME280;10057;59.402;17.866;2022-12-07T07:55:17;100575.19;;;-4.72;80.26
19795;BME280;10057;59.402;17.866;2022-12-07T07:57:44;100569.97;;;-4.75;80.50
19795;BME280;10057;59.402;17.866;2022-12-07T08:00:18;100567.31;;;-4.77;80.38
19795;BME280;10057;59.402;17.866;2022-12-07T08:02:45;100569.91;;;-4.78;80.81
19795;BME280;10057;59.402;17.866;2022-12-07T08:05:13;100571.63;;;-4.77;80.46
19795;BME280;10057;59.402;17.866;2022-12-07T08:07:40;100579.47;;;-4.74;80.76
19795;BME280;10057;59.402;17.866;2022-12-07T08:10:10;100566.53;;;-4.72;80.56
19795;BME280;10057;59.402;17.866;2022-12-07T08:12:39;100569.19;;;-4.71;80.39
19795;BME280;10057;59.402;17.866;2022-12-07T08:15:30;100564.88;;;-4.70;80.34
19795;BME280;10057;59.402;17.866;2022-12-07T08:17:58;100572.66;;;-4.69;80.44
19795;BME280;10057;59.402;17.866;2022-12-07T08:20:24;100560.59;;;-4.68;80.50
19795;BME280;10057;59.402;17.866;2022-12-07T08:22:51;100567.50;;;-4.69;80.75
19795;BME280;10057;59.402;17.866;2022-12-07T08:25:18;100570.06;;;-4.69;80.64
19795;BME280;10057;59.402;17.866;2022-12-07T08:27:45;100558.84;;;-4.71;80.49
19795;BME280;10057;59.402;17.866;2022-12-07T08:30:12;100556.25;;;-4.71;80.29
19795;BME280;10057;59.402;17.866;2022-12-07T08:32:39;100553.66;;;-4.71;80.46
19795;BME280;10057;59.402;17.866;2022-12-07T08:35:06;100550.19;;;-4.71;80.43
19795;BME280;10057;59.402;17.866;2022-12-07T08:37:32;100554.44;;;-4.73;80.29
19795;BME280;10057;59.402;17.866;2022-12-07T08:39:59;100553.53;;;-4.76;80.15
19795;BME280;10057;59.402;17.866;2022-12-07T08:42:26;100559.63;;;-4.75;80.50
19795;BME280;10057;59.402;17.866;2022-12-07T08:44:56;100551.88;;;-4.73;80.24
19795;BME280;10057;59.402;17.866;2022-12-07T08:47:24;100559.69;;;-4.70;80.81
19795;BME280;10057;59.402;17.866;2022-12-07T08:49:53;100554.53;;;-4.69;80.69
19795;BME280;10057;59.402;17.866;2022-12-07T08:52:20;100554.53;;;-4.69;80.54
19795;BME280;10057;59.402;17.866;2022-12-07T08:54:47;100551.94;;;-4.69;80.47
19795;BME280;10057;59.402;17.866;2022-12-07T08:57:14;100547.66;;;-4.68;80.54
19795;BME280;10057;59.402;17.866;2022-12-07T08:59:41;100550.22;;;-4.68;80.58
19795;BME280;10057;59.402;17.866;2022-12-07T09:02:08;100547.69;;;-4.67;80.39
19795;BME280;10057;59.402;17.866;2022-12-07T09:04:34;100545.97;;;-4.68;80.54
19795;BME280;10057;59.402;17.866;2022-12-07T09:07:01;100550.28;;;-4.67;80.76
19795;BME280;10057;59.402;17.866;2022-12-07T09:09:28;100546.84;;;-4.66;80.43
19795;BME280;10057;59.402;17.866;2022-12-07T09:11:55;100543.38;;;-4.66;80.79
19795;BME280;10057;59.402;17.866;2022-12-07T09:14:22;100553.81;;;-4.63;80.40
19795;BME280;10057;59.402;17.866;2022-12-07T09:16:49;100544.31;;;-4.64;80.38
19795;BME280;10057;59.402;17.866;2022-12-07T09:19:16;100548.66;;;-4.62;80.76
19795;BME280;10057;59.402;17.866;2022-12-07T09:21:42;100552.16;;;-4.61;80.54
19795;BME280;10057;59.402;17.866;2022-12-07T09:24:09;100546.13;;;-4.59;80.76
19795;BME280;10057;59.402;17.866;2022-12-07T09:26:39;100547.91;;;-4.58;80.30
19795;BME280;10057;59.402;17.866;2022-12-07T09:29:11;100551.38;;;-4.56;80.15
19795;BME280;10057;59.402;17.866;2022-12-07T09:31:37;100545.31;;;-4.56;80.63
19795;BME280;10057;59.402;17.866;2022-12-07T09:34:07;100536.72;;;-4.55;80.39
19795;BME280;10057;59.402;17.866;2022-12-07T09:36:34;100538.47;;;-4.54;80.82
19795;BME280;10057;59.402;17.866;2022-12-07T09:39:04;100536.78;;;-4.52;80.55
19795;BME280;10057;59.402;17.866;2022-12-07T09:41:32;100539.38;;;-4.52;80.79
19795;BME280;10057;59.402;17.866;2022-12-07T09:44:09;100540.28;;;-4.50;80.79
19795;BME280;10057;59.402;17.866;2022-12-07T09:46:39;100541.16;;;-4.49;80.55
19795;BME280;10057;59.402;17.866;2022-12-07T09:49:20;100532.53;;;-4.48;80.37
19795;BME280;10057;59.402;17.866;2022-12-07T09:51:48;100528.28;;;-4.46;80.67
19795;BME280;10057;59.402;17.866;2022-12-07T09:54:25;100525.69;;;-4.46;80.27
19795;BME280;10057;59.402;17.866;2022-12-07T09:56:52;100532.66;;;-4.44;80.51
19795;BME280;10057;59.402;17.866;2022-12-07T09:59:19;100542.16;;;-4.43;80.19
19795;BME280;10057;59.402;17.866;2022-12-07T10:01:47;100526.59;;;-4.44;80.41
19795;BME280;10057;59.402;17.866;2022-12-07T10:04:24;100529.19;;;-4.44;80.54
19795;BME280;10057;59.402;17.866;2022-12-07T10:06:54;100520.44;;;-4.48;80.61
19795;BME280;10057;59.402;17.866;2022-12-07T10:09:23;100517.06;;;-4.45;80.44
19795;BME280;10057;59.402;17.866;2022-12-07T10:12:09;100528.34;;;-4.43;80.46
19795;BME280;10057;59.402;17.866;2022-12-07T10:15:16;100522.28;;;-4.44;80.52
19795;BME280;10057;59.402;17.866;2022-12-07T10:17:48;100519.69;;;-4.44;80.46
19795;BME280;10057;59.402;17.866;2022-12-07T10:20:25;100518.00;;;-4.42;80.23
19795;BME280;10057;59.402;17.866;2022-12-07T10:23:04;100516.28;;;-4.41;80.12
19795;BME280;10057;59.402;17.866;2022-12-07T10:25:36;100514.53;;;-4.42;80.50
19795;BME280;10057;59.402;17.866;2022-12-07T10:30:51;100507.63;;;-4.42;80.47
19795;BME280;10057;59.402;17.866;2022-12-07T10:33:38;100511.13;;;-4.40;80.61
19795;BME280;10057;59.402;17.866;2022-12-07T10:36:21;100499.03;;;-4.41;80.33
19795;BME280;10057;59.402;17.866;2022-12-07T10:38:59;100499.03;;;-4.41;81.02
19795;BME280;10057;59.402;17.866;2022-12-07T10:41:26;100497.34;;;-4.39;80.46
19795;BME280;10057;59.402;17.866;2022-12-07T10:43:56;100494.78;;;-4.37;80.63
19795;BME280;10057;59.402;17.866;2022-12-07T10:49:44;100488.84;;;-4.32;80.99
19795;BME280;10057;59.402;17.866;2022-12-07T11:00:29;100469.91;;;-4.29;80.58
19795;BME280;10057;59.402;17.866;2022-12-07T11:06:20;100463.06;;;-4.25;80.59
19795;BME280;10057;59.402;17.866;2022-12-07T11:12:03;100456.19;;;-4.23;80.40
19795;BME280;10057;59.402;17.866;2022-12-07T11:14:44;100441.53;;;-4.21;80.49
19795;BME280;10057;59.402;17.866;2022-12-07T11:20:11;100449.31;;;-4.21;80.83
19795;BME280;10057;59.402;17.866;2022-12-07T11:25:25;100438.94;;;-4.21;80.58
19795;BME280;10057;59.402;17.866;2022-12-07T11:30:41;100434.69;;;-4.18;80.48
19795;BME280;10057;59.402;17.866;2022-12-07T11:33:25;100431.28;;;-4.15;80.57
19795;BME280;10057;59.402;17.866;2022-12-07T11:36:08;100429.56;;;-4.15;80.55
19795;BME280;10057;59.402;17.866;2022-12-07T11:38:48;100427.84;;;-4.14;80.64
19795;BME280;10057;59.402;17.866;2022-12-07T11:41:22;100430.47;;;-4.11;80.41
19795;BME280;10057;59.402;17.866;2022-12-07T11:44:06;100416.72;;;-4.10;80.53
19795;BME280;10057;59.402;17.866;2022-12-07T11:47:08;100420.19;;;-4.08;80.75
19795;BME280;10057;59.402;17.866;2022-12-07T11:52:16;100417.59;;;-4.08;80.10
19795;BME280;10057;59.402;17.866;2022-12-07T11:54:46;100403.75;;;-4.09;80.47
19795;BME280;10057;59.402;17.866;2022-12-07T11:57:20;100404.63;;;-4.10;80.33
19795;BME280;10057;59.402;17.866;2022-12-07T11:59:54;100404.63;;;-4.08;80.52
19795;BME280;10057;59.402;17.866;2022-12-07T12:02:46;100402.97;;;-4.05;80.63
19795;BME280;10057;59.402;17.866;2022-12-07T12:05:21;100390.88;;;-4.04;80.54
19795;BME280;10057;59.402;17.866;2022-12-07T12:07:55;100389.19;;;-4.02;80.29
19795;BME280;10057;59.402;17.866;2022-12-07T12:10:58;100396.97;;;-4.00;80.56
19795;BME280;10057;59.402;17.866;2022-12-07T12:13:51;100394.44;;;-3.97;80.61
19795;BME280;10057;59.402;17.866;2022-12-07T12:17:04;100384.09;;;-3.96;80.44
19795;BME280;10057;59.402;17.866;2022-12-07T12:22:41;100384.19;;;-3.90;80.30
19795;BME280;10057;59.402;17.866;2022-12-07T12:25:24;100380.81;;;-3.86;80.40
19795;BME280;10057;59.402;17.866;2022-12-07T12:27:53;100385.16;;;-3.83;80.76
19795;BME280;10057;59.402;17.866;2022-12-07T12:30:29;100381.72;;;-3.82;80.49
19795;BME280;10057;59.402;17.866;2022-12-07T12:57:36;100374.94;;;-3.74;80.51
19795;BME280;10057;59.402;17.866;2022-12-07T13:00:20;100370.66;;;-3.72;80.83
19795;BME280;10057;59.402;17.866;2022-12-07T13:02:52;100365.44;;;-3.73;80.73
19795;BME280;10057;59.402;17.866;2022-12-07T13:05:21;100382.75;;;-3.72;80.60
19795;BME280;10057;59.402;17.866;2022-12-07T13:08:00;100372.34;;;-3.74;80.56
19795;BME280;10057;59.402;17.866;2022-12-07T13:10:34;100373.25;;;-3.72;80.59
19795;BME280;10057;59.402;17.866;2022-12-07T13:13:28;100380.16;;;-3.72;80.36
19795;BME280;10057;59.402;17.866;2022-12-07T13:18:37;100378.44;;;-3.72;80.92
19795;BME280;10057;59.402;17.866;2022-12-07T13:28:49;100381.91;;;-3.70;80.42
19795;BME280;10057;59.402;17.866;2022-12-07T13:31:35;100373.28;;;-3.69;80.79
19795;BME280;10057;59.402;17.866;2022-12-07T13:34:04;100367.22;;;-3.69;80.68
19795;BME280;10057;59.402;17.866;2022-12-07T13:36:38;100370.66;;;-3.70;80.53
19795;BME280;10057;59.402;17.866;2022-12-07T13:41:42;100371.53;;;-3.70;80.34
19795;BME280;10057;59.402;17.866;2022-12-07T13:44:14;100374.13;;;-3.71;80.51
19795;BME280;10057;59.402;17.866;2022-12-07T13:46:47;100370.66;;;-3.72;80.22
19795;BME280;10057;59.402;17.866;2022-12-07T13:49:28;100383.56;;;-3.73;80.38
19795;BME280;10057;59.402;17.866;2022-12-07T13:52:13;100377.50;;;-3.75;80.57
19795;BME280;10057;59.402;17.866;2022-12-07T13:54:49;100373.16;;;-3.76;80.22
19795;BME280;10057;59.402;17.866;2022-12-07T13:57:22;100374.88;;;-3.78;80.32
19795;BME280;10057;59.402;17.866;2022-12-07T13:59:49;100376.56;;;-3.81;80.23
19795;BME280;10057;59.402;17.866;2022-12-07T14:02:28;100379.09;;;-3.84;80.40
19795;BME280;10057;59.402;17.866;2022-12-07T14:05:23;100375.69;;;-3.83;80.46
19795;BME280;10057;59.402;17.866;2022-12-07T14:08:05;100373.00;;;-3.87;80.55
19795;BME280;10057;59.402;17.866;2022-12-07T14:10:33;100377.31;;;-3.88;80.47
19795;BME280;10057;59.402;17.866;2022-12-07T14:13:02;100372.06;;;-3.91;80.30
19795;BME280;10057;59.402;17.866;2022-12-07T14:15:32;100377.25;;;-3.92;80.66
19795;BME280;10057;59.402;17.866;2022-12-07T14:18:00;100365.09;;;-3.95;80.49
19795;BME280;10057;59.402;17.866;2022-12-07T14:20:30;100360.78;;;-3.96;80.71
19795;BME280;10057;59.402;17.866;2022-12-07T14:22:57;100365.13;;;-3.93;80.51
19795;BME280;10057;59.402;17.866;2022-12-07T14:25:27;100359.06;;;-3.94;80.09
19795;BME280;10057;59.402;17.866;2022-12-07T14:27:57;100358.19;;;-3.96;80.24
19795;BME280;10057;59.402;17.866;2022-12-07T14:30:30;100355.59;;;-3.96;80.44
19795;BME280;10057;59.402;17.866;2022-12-07T14:33:03;100352.09;;;-3.98;80.57
19795;BME280;10057;59.402;17.866;2022-12-07T14:35:31;100352.97;;;-3.99;80.45
19795;BME280;10057;59.402;17.866;2022-12-07T14:37:58;100352.91;;;-4.00;80.95
19795;BME280;10057;59.402;17.866;2022-12-07T14:40:27;100350.31;;;-4.00;80.59